createdAt,value
2023-01-17T00:00:41.176Z,4.28
2023-01-17T00:02:59.249Z,4.24
2023-01-17T00:05:17.319Z,4.25
2023-01-17T00:07:37.850Z,4.22
2023-01-17T00:09:52.435Z,4.19
2023-01-17T00:12:10.527Z,4.15
2023-01-17T00:14:26.117Z,4.07
2023-01-17T00:16:40.269Z,4.04
2023-01-17T00:18:57.794Z,3.97
2023-01-17T00:21:15.868Z,3.88
2023-01-17T00:23:33.960Z,3.82
2023-01-17T00:25:49.539Z,3.75
2023-01-17T00:28:05.145Z,3.71
2023-01-17T00:30:20.720Z,3.67
2023-01-17T00:32:38.801Z,3.65
2023-01-17T00:34:53.399Z,3.62
2023-01-17T00:37:08.975Z,3.60
2023-01-17T00:39:24.578Z,3.53
2023-01-17T00:41:42.662Z,3.50
2023-01-17T00:43:58.239Z,3.44
2023-01-17T00:46:16.385Z,3.46
2023-01-17T00:48:30.934Z,3.44
2023-01-17T00:50:44.516Z,3.46
2023-01-17T00:53:02.591Z,3.47
2023-01-17T00:55:20.698Z,3.50
2023-01-17T00:57:38.757Z,3.47
2023-01-17T00:59:54.349Z,3.47
2023-01-17T01:02:07.911Z,3.43
2023-01-17T01:04:25.867Z,3.42
2023-01-17T01:06:41.439Z,3.44
2023-01-17T01:08:57.040Z,3.46
2023-01-17T01:11:10.126Z,3.49
2023-01-17T01:13:25.783Z,3.62
2023-01-17T01:15:41.319Z,3.64
2023-01-17T01:17:56.918Z,3.68
2023-01-17T01:20:12.501Z,3.70
2023-01-17T01:22:28.082Z,3.70
2023-01-17T01:24:43.702Z,3.65
2023-01-17T01:26:59.234Z,3.61
2023-01-17T01:29:17.335Z,3.54
2023-01-17T01:31:30.486Z,3.49
2023-01-17T01:33:46.019Z,3.50
2023-01-17T01:36:01.135Z,3.53
2023-01-17T01:38:19.232Z,3.61
2023-01-17T01:40:34.762Z,3.67
2023-01-17T01:42:50.359Z,3.71
2023-01-17T01:45:08.461Z,3.72
2023-01-17T01:47:24.407Z,3.70
2023-01-17T01:49:39.950Z,3.70
2023-01-17T01:51:58.060Z,3.65
2023-01-17T01:54:18.686Z,3.61
2023-01-17T01:56:34.227Z,3.50
2023-01-17T01:58:49.852Z,3.42
2023-01-17T02:01:05.511Z,3.44
2023-01-17T02:03:20.998Z,3.43
2023-01-17T02:05:36.580Z,3.43
2023-01-17T02:07:52.176Z,3.42
2023-01-17T02:10:05.786Z,3.44
2023-01-17T02:12:23.824Z,3.58
2023-01-17T02:14:39.441Z,3.64
2023-01-17T02:16:55.015Z,3.62
2023-01-17T02:19:10.582Z,3.75
2023-01-17T02:21:26.321Z,3.80
2023-01-17T02:23:41.763Z,3.82
2023-01-17T02:25:59.840Z,3.75
2023-01-17T02:28:15.424Z,3.72
2023-01-17T02:30:33.518Z,3.71
2023-01-17T02:32:48.135Z,3.75
2023-01-17T02:35:06.183Z,3.76
2023-01-17T02:37:24.268Z,3.72
2023-01-17T02:39:38.840Z,3.71
2023-01-17T02:41:56.947Z,3.76
2023-01-17T02:44:12.574Z,3.88
2023-01-17T02:46:30.639Z,4.00
2023-01-17T02:48:46.234Z,4.15
2023-01-17T02:51:01.835Z,4.33
2023-01-17T02:53:17.426Z,4.29
2023-01-17T02:55:35.535Z,4.29
2023-01-17T02:57:53.587Z,4.32
2023-01-17T03:00:11.653Z,4.40
2023-01-17T03:02:29.825Z,4.46
2023-01-17T03:04:45.444Z,4.50
2023-01-17T03:07:00.951Z,4.52
2023-01-17T03:09:16.531Z,4.46
2023-01-17T03:11:34.921Z,4.42
2023-01-17T03:13:53.037Z,4.37
2023-01-17T03:16:08.723Z,4.37
2023-01-17T03:18:26.919Z,4.44
2023-01-17T03:20:42.275Z,4.52
2023-01-17T03:22:58.840Z,4.52
2023-01-17T03:25:16.932Z,4.54
2023-01-17T03:27:32.516Z,4.54
2023-01-17T03:29:53.226Z,4.51
2023-01-17T03:32:11.181Z,4.47
2023-01-17T03:34:29.309Z,4.50
2023-01-17T03:36:44.941Z,4.51
2023-01-17T03:39:03.082Z,4.51
2023-01-17T03:41:18.624Z,4.57
2023-01-17T03:43:35.030Z,4.58
2023-01-17T03:45:48.756Z,4.62
2023-01-17T03:48:06.819Z,4.65
2023-01-17T03:50:22.409Z,4.67
2023-01-17T03:52:40.515Z,4.67
2023-01-17T03:54:56.057Z,4.72
2023-01-17T03:57:11.642Z,4.69
2023-01-17T03:59:29.743Z,4.73
2023-01-17T04:01:46.479Z,4.75
2023-01-17T04:04:04.424Z,4.80
2023-01-17T04:06:19.965Z,4.92
2023-01-17T04:08:38.088Z,4.98
2023-01-17T04:10:53.662Z,4.98
2023-01-17T04:13:11.760Z,4.96
2023-01-17T04:15:27.361Z,4.99
2023-01-17T04:17:45.427Z,5.05
2023-01-17T04:19:59.997Z,5.10
2023-01-17T04:22:18.099Z,5.05
2023-01-17T04:24:36.181Z,4.99
2023-01-17T04:26:54.296Z,4.89
2023-01-17T04:29:12.364Z,4.84
2023-01-17T04:31:27.986Z,4.84
2023-01-17T04:33:46.894Z,4.84
2023-01-17T04:36:00.634Z,4.84
2023-01-17T04:38:21.302Z,4.83
2023-01-17T04:40:36.830Z,4.84
2023-01-17T04:42:54.891Z,4.86
2023-01-17T04:45:10.465Z,4.88
2023-01-17T04:47:28.565Z,4.88
2023-01-17T04:49:49.181Z,4.91
2023-01-17T04:52:05.755Z,4.91
2023-01-17T04:54:23.831Z,4.92
2023-01-17T04:56:41.922Z,4.96
2023-01-17T04:59:00.013Z,5.02
2023-01-17T05:01:18.217Z,5.07
2023-01-17T05:03:36.217Z,5.14
2023-01-17T05:05:50.729Z,5.17
2023-01-17T05:08:08.894Z,5.20
2023-01-17T05:10:26.923Z,5.22
2023-01-17T05:12:42.545Z,5.23
2023-01-17T05:15:00.588Z,5.22
2023-01-17T05:17:15.187Z,5.23
2023-01-17T05:19:33.263Z,5.20
2023-01-17T05:21:51.373Z,5.22
2023-01-17T05:24:06.968Z,5.23
2023-01-17T05:26:21.139Z,5.22
2023-01-17T05:28:36.818Z,5.23
2023-01-17T05:30:51.762Z,5.23
2023-01-17T05:33:09.810Z,5.23
2023-01-17T05:35:27.933Z,5.28
2023-01-17T05:37:46.023Z,5.27
2023-01-17T05:40:01.163Z,5.22
2023-01-17T05:42:19.222Z,5.19
2023-01-17T05:44:34.808Z,5.13
2023-01-17T05:46:50.404Z,5.17
2023-01-17T05:49:05.989Z,5.20
2023-01-17T05:51:24.128Z,5.20
2023-01-17T05:53:39.715Z,5.17
2023-01-17T05:55:57.797Z,5.16
2023-01-17T05:58:13.451Z,5.14
2023-01-17T06:00:27.963Z,5.16
2023-01-17T06:02:49.620Z,5.17
2023-01-17T06:05:07.685Z,5.17
2023-01-17T06:07:25.740Z,5.16
2023-01-17T06:09:43.836Z,5.16
2023-01-17T06:12:01.903Z,5.19
2023-01-17T06:14:16.536Z,5.23
2023-01-17T06:16:32.127Z,5.19
2023-01-17T06:18:51.196Z,5.19
2023-01-17T06:21:09.308Z,5.13
2023-01-17T06:23:24.882Z,5.10
2023-01-17T06:25:40.520Z,5.12
2023-01-17T06:27:56.040Z,5.14
2023-01-17T06:30:11.639Z,5.13
2023-01-17T06:32:27.265Z,5.17
2023-01-17T06:34:45.317Z,5.13
2023-01-17T06:37:03.415Z,5.13
2023-01-17T06:39:18.978Z,5.13
2023-01-17T06:41:34.426Z,5.12
2023-01-17T06:43:49.205Z,5.05
2023-01-17T06:46:07.252Z,5.05
2023-01-17T06:48:22.843Z,5.05
2023-01-17T06:50:38.447Z,5.04
2023-01-17T06:52:53.018Z,4.99
2023-01-17T06:55:11.125Z,4.96
2023-01-17T06:57:26.729Z,4.89
2023-01-17T06:59:44.821Z,4.88
2023-01-17T07:02:02.909Z,4.88
2023-01-17T07:04:18.498Z,4.86
2023-01-17T07:06:34.129Z,4.86
2023-01-17T07:08:52.209Z,4.89
2023-01-17T07:11:10.295Z,4.88
2023-01-17T07:13:26.859Z,4.88
2023-01-17T07:15:44.975Z,4.92
2023-01-17T07:18:01.599Z,4.91
2023-01-17T07:20:18.090Z,4.88
2023-01-17T07:22:36.190Z,4.84
2023-01-17T07:24:54.290Z,4.80
2023-01-17T07:27:14.899Z,4.84
2023-01-17T07:29:33.032Z,4.91
2023-01-17T07:31:53.618Z,4.92
2023-01-17T07:34:11.654Z,4.92
2023-01-17T07:36:29.826Z,4.95
2023-01-17T07:38:50.336Z,5.01
2023-01-17T07:41:05.975Z,5.01
2023-01-17T07:43:24.002Z,5.05
2023-01-17T07:45:39.620Z,5.07
2023-01-17T07:47:57.751Z,5.07
2023-01-17T07:50:15.841Z,5.10
2023-01-17T07:52:31.476Z,5.05
2023-01-17T07:54:49.467Z,5.05
2023-01-17T07:57:07.622Z,5.07
2023-01-17T07:59:25.666Z,5.07
2023-01-17T08:01:47.133Z,5.05
2023-01-17T08:04:04.931Z,5.05
2023-01-17T08:06:22.959Z,5.04
2023-01-17T08:08:40.529Z,5.05
2023-01-17T08:10:59.499Z,5.09
2023-01-17T08:13:17.252Z,5.10
2023-01-17T08:15:37.343Z,5.10
2023-01-17T08:17:57.968Z,5.10
2023-01-17T08:20:16.005Z,5.12
2023-01-17T08:22:30.607Z,5.07
2023-01-17T08:24:47.201Z,5.02
2023-01-17T08:27:02.822Z,5.04
2023-01-17T08:29:18.182Z,5.02
2023-01-17T08:31:37.059Z,5.10
2023-01-17T08:34:46.106Z,5.17
2023-01-17T08:37:01.287Z,5.19
2023-01-17T08:39:16.626Z,5.17
2023-01-17T08:41:37.215Z,5.17
2023-01-17T08:43:55.099Z,5.19
2023-01-17T08:46:15.706Z,5.20
2023-01-17T08:48:33.809Z,5.22
2023-01-17T08:51:34.451Z,5.23
2023-01-17T08:53:50.130Z,5.23
2023-01-17T08:56:08.307Z,5.22
2023-01-17T08:58:30.720Z,5.20
2023-01-17T09:00:44.411Z,5.20
2023-01-17T09:02:58.992Z,5.20
2023-01-17T09:05:15.587Z,5.17
2023-01-17T09:07:33.821Z,5.16
2023-01-17T09:09:51.910Z,5.16
2023-01-17T09:12:09.872Z,5.14
2023-01-17T09:14:28.806Z,5.12
2023-01-17T09:16:44.613Z,5.02
2023-01-17T09:18:59.147Z,4.94
2023-01-17T09:21:17.425Z,4.88
2023-01-17T09:23:35.281Z,4.88
2023-01-17T09:25:52.924Z,4.84
2023-01-17T09:28:11.047Z,4.84
2023-01-17T09:30:26.864Z,4.86
2023-01-17T09:32:45.258Z,4.91
2023-01-17T09:35:05.504Z,4.92
2023-01-17T09:37:23.415Z,4.95
2023-01-17T09:39:44.736Z,5.01
2023-01-17T09:41:59.121Z,5.09
2023-01-17T09:44:16.867Z,5.10
2023-01-17T09:46:37.756Z,5.07
2023-01-17T09:48:56.212Z,5.05
2023-01-17T09:51:18.286Z,5.04
2023-01-17T09:53:34.691Z,5.02
2023-01-17T09:55:56.381Z,5.05
2023-01-17T09:58:11.854Z,5.07
2023-01-17T10:00:29.598Z,5.05
2023-01-17T10:02:48.126Z,4.89
2023-01-17T10:05:06.570Z,4.73
2023-01-17T10:07:22.157Z,4.69
2023-01-17T10:09:43.177Z,4.61
2023-01-17T10:11:57.652Z,4.58
2023-01-17T10:14:13.195Z,4.57
2023-01-17T10:16:31.327Z,4.59
2023-01-17T10:18:46.599Z,4.61
2023-01-17T10:21:03.907Z,4.72
2023-01-17T10:23:18.808Z,4.92
2023-01-17T10:25:36.710Z,5.07
2023-01-17T10:27:54.688Z,5.14
2023-01-17T10:30:08.549Z,5.19
2023-01-17T10:32:26.504Z,5.22
2023-01-17T10:34:43.619Z,5.27
2023-01-17T10:37:04.551Z,5.04
2023-01-17T10:58:01.493Z,4.59
2023-01-17T11:00:19.460Z,4.36
2023-01-17T11:02:34.095Z,4.04
2023-01-17T11:04:52.148Z,3.70
2023-01-17T11:07:08.934Z,3.40
2023-01-17T11:09:27.141Z,2.98
2023-01-17T11:11:45.287Z,2.70
2023-01-17T11:13:59.674Z,2.51
2023-01-17T11:16:16.741Z,2.35
2023-01-17T11:18:37.692Z,2.31
2023-01-17T11:20:52.159Z,2.35
2023-01-17T11:23:10.404Z,2.56
2023-01-17T11:25:28.835Z,2.84
2023-01-17T11:27:43.161Z,3.07
2023-01-17T11:29:58.979Z,3.33
2023-01-17T11:32:16.274Z,3.60
2023-01-17T11:34:31.936Z,3.78
2023-01-17T11:36:46.658Z,3.80
2023-01-17T11:39:01.416Z,4.00
2023-01-17T11:41:17.614Z,4.04
2023-01-17T11:43:33.256Z,4.08
2023-01-17T11:45:47.930Z,4.00
2023-01-17T11:48:03.369Z,3.89
2023-01-17T11:50:19.931Z,3.85
2023-01-17T11:52:34.519Z,3.80
2023-01-17T11:54:49.083Z,3.83
2023-01-17T11:57:07.241Z,3.89
2023-01-17T11:59:25.330Z,3.89
2023-01-17T12:01:45.878Z,3.88
2023-01-17T12:04:00.637Z,4.01
2023-01-17T12:06:18.154Z,4.07
2023-01-17T12:08:36.070Z,4.06
2023-01-17T12:10:51.668Z,4.10
2023-01-17T12:13:09.774Z,4.08
2023-01-17T12:15:25.327Z,4.07
2023-01-17T12:17:41.981Z,4.08
2023-01-17T12:20:03.093Z,4.07
2023-01-17T12:22:17.681Z,4.03
2023-01-17T12:24:36.030Z,3.98
2023-01-17T12:26:51.344Z,4.00
2023-01-17T12:29:03.684Z,4.10
2023-01-17T12:31:21.679Z,4.15
2023-01-17T12:33:37.259Z,4.18
2023-01-17T12:35:55.330Z,4.22
2023-01-17T12:38:27.378Z,4.25
2023-01-17T12:40:29.035Z,4.25
2023-01-17T12:42:44.621Z,4.26
2023-01-17T12:44:58.232Z,4.24
2023-01-17T12:47:13.772Z,4.26
2023-01-17T12:49:29.447Z,4.25
2023-01-17T12:51:48.176Z,4.32
2023-01-17T12:54:00.599Z,4.32
2023-01-17T12:56:16.179Z,4.39
2023-01-17T12:58:31.761Z,4.34
2023-01-17T13:00:47.432Z,4.43
2023-01-17T13:03:04.011Z,4.47
2023-01-17T13:05:19.676Z,4.40
2023-01-17T13:07:33.242Z,4.29
2023-01-17T13:09:54.375Z,4.21
2023-01-17T13:12:10.081Z,4.08
2023-01-17T13:15:28.784Z,3.94
2023-01-17T13:17:45.760Z,3.83
2023-01-17T13:20:01.207Z,3.75
2023-01-17T13:22:21.619Z,3.65
2023-01-17T13:27:25.264Z,3.62
2023-01-17T13:29:41.711Z,3.61
2023-01-17T13:31:56.317Z,3.64
2023-01-17T13:34:11.906Z,3.72
2023-01-17T13:36:26.522Z,3.76
2023-01-17T13:38:44.579Z,3.79
2023-01-17T13:40:58.280Z,3.86
2023-01-17T13:43:13.816Z,3.94
2023-01-17T13:45:29.392Z,4.00
2023-01-17T13:47:44.960Z,4.01
2023-01-17T13:50:03.390Z,4.07
2023-01-17T13:52:21.453Z,4.19
2023-01-17T13:54:37.850Z,4.18
2023-01-17T13:56:57.967Z,4.21
2023-01-17T13:59:18.028Z,4.33
2023-01-17T14:01:36.525Z,4.36
2023-01-17T14:04:21.860Z,4.29
2023-01-17T14:13:47.887Z,3.96
2023-01-17T14:17:43.765Z,4.03
2023-01-17T14:20:01.966Z,4.00
2023-01-17T14:22:19.760Z,3.88
2023-01-17T14:24:35.784Z,3.79
2023-01-17T14:26:48.956Z,3.65
2023-01-17T14:29:04.512Z,3.58
2023-01-17T14:31:17.640Z,3.53
2023-01-17T14:33:32.043Z,3.44
2023-01-17T14:35:46.865Z,3.33
2023-01-17T14:38:02.383Z,3.28
2023-01-17T14:40:20.476Z,3.23
2023-01-17T14:42:36.069Z,3.27
2023-01-17T14:44:49.643Z,3.28
2023-01-17T14:47:04.276Z,3.28
2023-01-17T14:49:22.305Z,3.23
2023-01-17T14:51:40.407Z,3.12
2023-01-17T14:53:55.999Z,3.12
2023-01-17T14:56:10.563Z,3.06
2023-01-17T14:58:25.292Z,2.94
2023-01-17T15:00:45.758Z,2.79
2023-01-17T15:03:03.856Z,2.64
2023-01-17T15:05:19.431Z,2.41
2023-01-17T15:07:35.047Z,2.20
2023-01-17T15:09:49.621Z,2.06
2023-01-17T15:12:05.177Z,1.90
2023-01-17T15:14:20.922Z,1.72
2023-01-17T15:16:41.511Z,1.58
2023-01-17T15:18:57.068Z,1.51
2023-01-17T15:21:16.000Z,1.43
2023-01-17T15:23:29.704Z,1.33
2023-01-17T15:25:47.809Z,1.28
2023-01-17T15:28:01.132Z,1.18
2023-01-17T15:30:19.204Z,1.06
2023-01-17T15:32:33.802Z,1.00
2023-01-17T15:34:48.375Z,0.89
2023-01-17T15:37:06.474Z,0.82
2023-01-17T15:39:22.083Z,0.79
2023-01-17T15:41:40.142Z,0.78
2023-01-17T15:43:56.733Z,0.62
2023-01-17T15:46:14.893Z,0.48
2023-01-17T15:48:28.922Z,0.46
2023-01-17T15:50:47.470Z,0.38
2023-01-17T15:53:03.090Z,0.31
2023-01-17T15:55:18.684Z,0.21
2023-01-17T15:57:35.228Z,0.15
2023-01-17T15:59:48.839Z,0.10
2023-01-17T16:02:03.397Z,0.09
2023-01-17T16:04:21.496Z,0.06
2023-01-17T16:06:37.085Z,-0.04
2023-01-17T16:08:57.649Z,-0.16
2023-01-17T16:11:14.066Z,-0.26
2023-01-17T16:14:20.476Z,-0.42
2023-01-17T16:16:41.145Z,-0.41
2023-01-17T16:18:59.140Z,-0.37
2023-01-17T16:21:17.226Z,-0.42
2023-01-17T16:23:37.861Z,-0.44
2023-01-17T16:25:51.739Z,-0.47
2023-01-17T16:28:06.996Z,-0.45
2023-01-17T16:30:21.602Z,-0.47
2023-01-17T16:32:39.671Z,-0.44
2023-01-17T16:34:53.270Z,-0.47
2023-01-17T16:37:11.347Z,-0.59
2023-01-17T16:39:29.436Z,-0.55
2023-01-17T16:41:47.536Z,-0.68
2023-01-17T16:44:05.621Z,-0.70
2023-01-17T16:46:21.377Z,-0.73
2023-01-17T16:48:39.392Z,-0.87
2023-01-17T16:50:57.444Z,-0.86
2023-01-17T16:53:13.062Z,-0.91
2023-01-17T16:55:28.633Z,-0.92
2023-01-17T16:57:50.052Z,-0.91
2023-01-17T17:00:05.312Z,-0.99
2023-01-17T17:02:23.542Z,-1.02
2023-01-17T17:04:41.480Z,-1.06
2023-01-17T17:06:59.591Z,-1.13
2023-01-17T17:09:17.689Z,-1.20
2023-01-17T17:11:34.104Z,-1.25
2023-01-17T17:13:46.968Z,-1.28
2023-01-17T17:16:05.215Z,-1.33
2023-01-17T17:18:19.147Z,-1.38
2023-01-17T17:20:39.739Z,-1.39
2023-01-17T17:22:57.809Z,-1.33
2023-01-17T17:25:15.917Z,-1.30
2023-01-17T17:27:31.631Z,-1.31
2023-01-17T17:29:47.098Z,-1.33
2023-01-17T17:32:02.710Z,-1.41
2023-01-17T17:34:18.264Z,-1.41
2023-01-17T17:36:37.195Z,-1.38
2023-01-17T17:38:52.012Z,-1.39
2023-01-17T17:41:06.546Z,-1.42
2023-01-17T17:43:26.470Z,-1.42
2023-01-17T17:45:40.188Z,-1.41
2023-01-17T17:47:59.522Z,-1.42
2023-01-17T17:50:14.905Z,-1.46
2023-01-17T17:52:26.997Z,-1.49
2023-01-17T17:54:42.586Z,-1.56
2023-01-17T17:56:58.173Z,-1.64
2023-01-17T17:59:11.526Z,-1.70
2023-01-17T18:01:27.490Z,-1.84
2023-01-17T18:03:42.742Z,-1.80
2023-01-17T18:05:58.370Z,-1.75
2023-01-17T18:08:14.359Z,-1.77
2023-01-17T18:10:29.532Z,-1.85
2023-01-17T18:12:47.641Z,-1.87
2023-01-17T18:15:03.247Z,-1.93
2023-01-17T18:17:15.369Z,-1.96
2023-01-17T18:20:27.498Z,-1.92
2023-01-17T18:22:45.095Z,-1.93
2023-01-17T18:25:00.738Z,-2.02
2023-01-17T18:27:18.776Z,-2.03
2023-01-17T18:29:37.001Z,-2.03
2023-01-17T18:31:54.963Z,-2.00
2023-01-17T18:36:48.199Z,-2.16
2023-01-17T18:40:55.757Z,-2.20
2023-01-17T18:45:53.406Z,-2.38
2023-01-17T18:48:30.982Z,-2.47
2023-01-17T18:50:32.601Z,-2.48
2023-01-17T18:56:33.852Z,-2.42
2023-01-17T18:59:29.346Z,-2.38
2023-01-17T19:01:11.035Z,-2.35
2023-01-17T19:03:28.015Z,-2.32
2023-01-17T19:10:34.522Z,-2.35
2023-01-17T19:12:37.290Z,-2.40
2023-01-17T19:32:34.305Z,-2.74
2023-01-17T19:34:52.055Z,-2.64
2023-01-17T19:36:56.288Z,-2.68
2023-01-17T19:40:47.028Z,-2.76
2023-01-17T19:57:11.733Z,-2.76
2023-01-17T20:00:13.789Z,-2.90
2023-01-17T20:13:40.996Z,-3.14
